Close

Weather

The weather information here should not replace a pre-flight briefing, and may not be accurate at any given time due to internet outages or other issues.

6NM NNE of NC26
STATESVILLE, NC
Metar
KSVH 202015Z AUTO 23003KT 10SM SCT070 SCT100 BKN110 25/23 A3002 RMK AO2 T02500232

20:15 UTC

Wind: 230° 3kt

Visibility: 10 SM

Sky: SCT 7000 ft

Temp: 25 deg C / 77 deg F

Dewpoint: 23 deg C / 73.4 deg F

Pressure: 30.02 inHg

Pirep (1)
HKY UA /OV BZM080020/TM 1952/FL220/TP TBM8/TA M15/IC LGT RIME/RM ZTLFD
21NM NW of NC26
HICKORY, NC
Metar
KHKY 202005Z 06005KT 10SM FEW055 SCT075 BKN110 25/23 A3005 RMK AO2 P0001 T02500228

20:05 UTC

Wind: 60° 5kt

Visibility: 10 SM

Sky: FEW 5500 ft

Temp: 25 deg C / 77 deg F

Dewpoint: 23 deg C / 73.4 deg F

Pressure: 30.05 inHg

Pirep (1)
HKY UA /OV BZM080020/TM 1952/FL220/TP TBM8/TA M15/IC LGT RIME/RM ZTLFD

Wind Graph at Long Island